TimeCDT,TemperatureF,Dew PointF,Humidity,Sea Level PressureIn,VisibilityMPH,Wind Direction,Wind SpeedMPH,Gust SpeedMPH,PrecipitationIn,Events,Conditions,WindDirDegrees,DateUTC
12:52 AM,24.1,19.9,84,30.35,10.0,West,4.6,-,N/A,,Clear,270,2013-10-25 05:52:00
1:52 AM,24.1,19.9,84,30.37,10.0,West,4.6,-,N/A,,Clear,270,2013-10-25 06:52:00
2:52 AM,23.0,19.9,88,30.38,10.0,WNW,4.6,-,N/A,,Clear,290,2013-10-25 07:52:00
3:52 AM,24.1,21.0,88,30.38,10.0,WNW,3.5,-,N/A,,Clear,290,2013-10-25 08:52:00
4:52 AM,23.0,19.0,85,30.39,10.0,Calm,Calm,-,N/A,,Clear,0,2013-10-25 09:52:00
5:52 AM,19.9,17.1,89,30.42,10.0,Calm,Calm,-,N/A,,Clear,0,2013-10-25 10:52:00
6:52 AM,21.9,18.0,85,30.42,10.0,Calm,Calm,-,N/A,,Clear,0,2013-10-25 11:52:00
7:52 AM,21.9,19.9,92,30.43,10.0,Calm,Calm,-,N/A,,Clear,0,2013-10-25 12:52:00
8:52 AM,30.0,26.1,85,30.44,10.0,Calm,Calm,-,N/A,,Clear,0,2013-10-25 13:52:00
9:52 AM,37.0,30.0,76,30.43,10.0,WSW,4.6,-,N/A,,Mostly Cloudy,240,2013-10-25 14:52:00
10:52 AM,-9999,-9999,N/A,30.40,-9999.0,North,-9999.0,-,N/A,,Unknown,0,2013-10-25 15:52:00
11:52 AM,46.9,27.0,46,30.40,-9999.0,West,11.5,-,N/A,,Unknown,260,2013-10-25 16:52:00
12:52 PM,48.9,28.0,44,30.36,10.0,SW,11.5,-,N/A,,Clear,230,2013-10-25 17:52:00
1:52 PM,51.1,28.0,41,30.32,10.0,West,18.4,23.0,N/A,,Mostly Cloudy,260,2013-10-25 18:52:00
2:52 PM,52.0,27.0,38,30.29,10.0,SW,11.5,25.3,N/A,,Clear,230,2013-10-25 19:52:00
3:52 PM,51.1,25.0,36,30.26,10.0,SW,15.0,26.5,N/A,,Clear,230,2013-10-25 20:52:00
4:52 PM,50.0,25.0,38,30.23,10.0,WSW,12.7,20.7,N/A,,Clear,240,2013-10-25 21:52:00
5:52 PM,48.0,26.1,42,30.21,10.0,SW,10.4,-,N/A,,Clear,220,2013-10-25 22:52:00
6:52 PM,44.1,26.1,49,30.18,10.0,South,9.2,-,N/A,,Clear,190,2013-10-25 23:52:00
7:52 PM,44.1,26.1,49,30.16,10.0,South,10.4,-,N/A,,Clear,190,2013-10-26 00:52:00
8:52 PM,46.0,27.0,47,30.14,10.0,SSW,13.8,-,N/A,,Overcast,210,2013-10-26 01:52:00
9:52 PM,46.0,27.0,47,30.12,10.0,SW,19.6,28.8,N/A,,Scattered Clouds,220,2013-10-26 02:52:00
10:52 PM,44.1,26.1,49,30.09,10.0,SSW,16.1,25.3,N/A,,Clear,210,2013-10-26 03:52:00
11:52 PM,42.1,27.0,55,30.07,10.0,SSW,13.8,-,N/A,,Clear,200,2013-10-26 04:52:00